Time;durP1;ratioP1;P1;durP2;ratioP2;P2;SDS_P1;SDS_P2;PMS_P1;PMS_P2;Temp;Humidity;BMP_temperature;BMP_pressure;BME280_temperature;BME280_humidity;BME280_pressure;Samples;Min_cycle;Max_cycle;Signal;HPM_P1;HPM_P2
2021/04/28 00:01:37;;;;;;;12.00;6.33;;;10.20;53.30;;;;;;5110567;28;20485;-72
2021/04/28 00:04:04;;;;;;;10.27;6.13;;;10.20;54.50;;;;;;5094749;28;20488;-71
2021/04/28 00:06:30;;;;;;;9.83;6.10;;;10.10;55.40;;;;;;5107880;28;20424;-75
2021/04/28 00:08:56;;;;;;;11.87;6.30;;;10.00;56.00;;;;;;5099901;28;20468;-72
2021/04/28 00:11:22;;;;;;;9.20;6.00;;;9.90;56.40;;;;;;5097654;28;20441;-73
2021/04/28 00:13:48;;;;;;;11.53;6.10;;;9.80;56.20;;;;;;5096133;28;20189;-72
2021/04/28 00:16:14;;;;;;;10.10;5.80;;;9.80;56.00;;;;;;5097901;28;20178;-74
2021/04/28 00:18:40;;;;;;;9.33;5.40;;;9.70;56.20;;;;;;5108302;28;20414;-70
2021/04/28 00:21:06;;;;;;;12.40;6.53;;;9.80;56.10;;;;;;5100296;28;20444;-73
2021/04/28 00:23:31;;;;;;;9.90;5.97;;;9.70;56.60;;;;;;5102830;28;20191;-72
2021/04/28 00:25:57;;;;;;;9.97;5.97;;;9.70;56.10;;;;;;5109944;28;20767;-74
2021/04/28 00:28:23;;;;;;;14.10;5.37;;;9.80;55.00;;;;;;5099347;28;20210;-71
2021/04/28 00:30:49;;;;;;;10.37;6.07;;;9.80;54.20;;;;;;5100706;28;20247;-71
2021/04/28 00:33:14;;;;;;;12.80;6.67;;;9.80;54.00;;;;;;5111267;28;20178;-74
2021/04/28 00:35:40;;;;;;;11.30;5.93;;;9.70;53.70;;;;;;5109873;28;20224;-73
2021/04/28 00:38:06;;;;;;;11.70;6.17;;;9.70;54.80;;;;;;5104401;28;20171;-71
2021/04/28 00:40:34;;;;;;;12.97;7.13;;;9.70;54.40;;;;;;5112095;28;20380;-73
2021/04/28 00:43:01;;;;;;;13.23;6.70;;;9.70;54.40;;;;;;5110229;28;20412;-74
2021/04/28 00:45:28;;;;;;;12.20;6.40;;;9.70;54.10;;;;;;5113618;28;20486;-73
2021/04/28 00:47:56;;;;;;;8.23;5.33;;;9.60;54.20;;;;;;5114481;28;20435;-74
2021/04/28 00:50:32;;;;;;;10.63;5.93;;;9.60;54.00;;;;;;5114052;28;20863;-73
2021/04/28 00:53:00;;;;;;;9.57;5.73;;;9.60;53.80;;;;;;5114733;28;20458;-75
2021/04/28 00:55:26;;;;;;;8.07;5.63;;;9.60;54.10;;;;;;5114597;28;20443;-76
2021/04/28 00:57:53;;;;;;;8.17;5.73;;;9.60;54.10;;;;;;5114553;28;20423;-71
2021/04/28 01:00:19;;;;;;;10.80;5.97;;;9.60;54.40;;;;;;5114678;28;20474;-74
2021/04/28 01:02:45;;;;;;;11.83;6.80;;;9.50;54.00;;;;;;5113783;28;20428;-74
2021/04/28 01:05:12;;;;;;;10.43;6.27;;;9.50;54.00;;;;;;5101913;28;20466;-72
2021/04/28 01:07:39;;;;;;;7.80;5.10;;;9.50;53.80;;;;;;5113401;28;20420;-73
2021/04/28 01:10:11;;;;;;;8.70;6.17;;;9.50;54.20;;;;;;5114406;28;20456;-71
2021/04/28 01:12:38;;;;;;;9.90;6.40;;;9.60;54.40;;;;;;5116106;28;20429;-72
2021/04/28 01:15:08;;;;;;;14.43;7.23;;;9.60;54.20;;;;;;5114474;28;20417;-71
2021/04/28 01:17:34;;;;;;;14.07;6.90;;;9.50;54.10;;;;;;5113921;28;20435;-72
2021/04/28 01:20:00;;;;;;;11.80;7.10;;;9.50;54.50;;;;;;5113698;28;20448;-72
2021/04/28 01:22:27;;;;;;;14.00;7.13;;;9.50;54.80;;;;;;5112198;28;20483;-73
2021/04/28 01:24:53;;;;;;;13.47;7.07;;;9.50;55.00;;;;;;5112582;28;20186;-71
2021/04/28 01:27:26;;;;;;;11.77;6.60;;;9.50;55.20;;;;;;5113843;28;20420;-72
2021/04/28 01:29:54;;;;;;;12.60;6.70;;;9.40;55.40;;;;;;5106557;28;20506;-73
2021/04/28 01:32:21;;;;;;;11.60;6.80;;;9.40;55.40;;;;;;5093726;28;20444;-72
2021/04/28 01:34:50;;;;;;;9.77;6.20;;;9.40;55.60;;;;;;5092977;28;20408;-72
2021/04/28 01:37:17;;;;;;;12.03;6.50;;;9.40;55.80;;;;;;5105994;28;20932;-72
2021/04/28 01:39:46;;;;;;;14.63;6.20;;;9.30;56.10;;;;;;5111271;28;20420;-73
2021/04/28 01:42:11;;;;;;;12.60;6.00;;;9.30;56.60;;;;;;5110016;28;20443;-72
2021/04/28 01:44:38;;;;;;;9.93;6.63;;;9.30;56.60;;;;;;5099753;28;20436;-72
2021/04/28 01:47:05;;;;;;;8.40;6.60;;;9.30;56.80;;;;;;5111044;28;20273;-71
2021/04/28 01:49:31;;;;;;;11.93;6.40;;;9.30;57.30;;;;;;5111870;28;20508;-71
2021/04/28 01:51:58;;;;;;;11.87;7.10;;;9.30;57.40;;;;;;5113154;28;20444;-72
2021/04/28 01:54:24;;;;;;;12.27;6.67;;;9.20;57.60;;;;;;5112487;28;20436;-71
2021/04/28 01:56:52;;;;;;;11.80;6.90;;;9.30;57.70;;;;;;5113194;28;21226;-71
2021/04/28 01:59:21;;;;;;;12.30;6.70;;;9.30;57.80;;;;;;5104879;28;20936;-74
2021/04/28 02:01:50;;;;;;;12.20;7.03;;;9.30;57.80;;;;;;5107791;28;20432;-73
2021/04/28 02:04:16;;;;;;;10.30;6.53;;;9.30;57.80;;;;;;5113020;28;20440;-71
2021/04/28 02:06:43;;;;;;;12.07;6.80;;;9.30;58.20;;;;;;5113082;28;20455;-71
2021/04/28 02:09:09;;;;;;;13.80;6.47;;;9.20;58.40;;;;;;5112854;28;20679;-73
2021/04/28 02:11:36;;;;;;;14.30;7.27;;;9.20;58.70;;;;;;5112246;28;20475;-73
2021/04/28 02:14:02;;;;;;;12.33;7.17;;;9.20;58.70;;;;;;5112867;28;20413;-72
2021/04/28 02:16:31;;;;;;;13.80;6.60;;;9.20;58.40;;;;;;5119390;28;20478;-71
2021/04/28 02:18:59;;;;;;;10.33;6.57;;;9.20;58.50;;;;;;5128008;28;20408;-75
2021/04/28 02:21:24;;;;;;;12.80;7.53;;;9.20;58.70;;;;;;5123408;27;20446;-75
2021/04/28 02:23:50;;;;;;;14.33;7.77;;;9.20;58.90;;;;;;5117284;28;20416;-75
2021/04/28 02:26:17;;;;;;;12.50;7.47;;;9.20;59.10;;;;;;5118089;28;20424;-75
2021/04/28 02:28:42;;;;;;;12.73;7.03;;;9.10;59.20;;;;;;5117686;28;20481;-75
2021/04/28 02:31:08;;;;;;;14.53;8.63;;;9.20;59.30;;;;;;5116585;28;20441;-76
2021/04/28 02:33:35;;;;;;;12.67;7.80;;;9.10;59.10;;;;;;5110330;28;20204;-73
2021/04/28 02:36:03;;;;;;;17.13;7.90;;;9.00;59.50;;;;;;5111175;28;20175;-73
2021/04/28 02:38:58;;;;;;;14.07;7.50;;;9.00;60.00;;;;;;5111376;28;20412;-74
2021/04/28 02:41:24;;;;;;;10.40;6.80;;;9.00;60.60;;;;;;5098033;28;20527;-75
2021/04/28 02:43:52;;;;;;;17.43;8.00;;;9.00;60.70;;;;;;5109252;28;20481;-75
2021/04/28 02:46:19;;;;;;;15.17;7.43;;;9.00;61.00;;;;;;5111156;28;20436;-74
2021/04/28 02:48:49;;;;;;;15.23;8.30;;;8.90;61.30;;;;;;5109638;28;20452;-73
2021/04/28 02:51:14;;;;;;;10.03;6.83;;;8.90;61.70;;;;;;5111537;28;20428;-72
2021/04/28 02:53:45;;;;;;;13.33;7.30;;;8.90;61.90;;;;;;5110560;28;20942;-72
2021/04/28 02:56:12;;;;;;;14.20;7.90;;;8.90;62.30;;;;;;5111098;28;20182;-72
2021/04/28 02:58:39;;;;;;;10.53;6.90;;;8.80;62.00;;;;;;5111183;28;20435;-73
2021/04/28 03:01:05;;;;;;;13.40;8.40;;;8.80;62.30;;;;;;5111205;28;20515;-75
2021/04/28 03:03:35;;;;;;;11.13;7.07;;;8.70;62.80;;;;;;5107772;28;20421;-73
2021/04/28 03:06:01;;;;;;;11.90;7.53;;;8.70;62.90;;;;;;5089888;28;20425;-73
2021/04/28 03:08:27;;;;;;;11.43;7.20;;;8.70;62.80;;;;;;5090881;28;20837;-73
2021/04/28 03:10:53;;;;;;;12.77;7.77;;;8.70;62.00;;;;;;5091306;28;20444;-73
2021/04/28 03:13:20;;;;;;;10.37;6.90;;;8.60;62.60;;;;;;5093734;28;20425;-74
2021/04/28 03:15:48;;;;;;;14.97;7.70;;;8.60;62.60;;;;;;5111260;28;20472;-72
2021/04/28 03:18:15;;;;;;;15.90;7.97;;;8.60;63.10;;;;;;5109211;28;21173;-73
2021/04/28 03:20:46;;;;;;;11.97;7.30;;;8.60;63.40;;;;;;5095256;28;20836;-73
2021/04/28 03:23:13;;;;;;;13.07;8.07;;;8.50;63.70;;;;;;5076690;28;20965;-73
2021/04/28 03:25:40;;;;;;;11.00;6.50;;;8.60;63.70;;;;;;5090301;28;20421;-73
2021/04/28 03:28:07;;;;;;;12.83;7.10;;;8.60;63.80;;;;;;5094368;28;20433;-73
2021/04/28 03:30:33;;;;;;;10.80;6.90;;;8.60;63.90;;;;;;5105374;28;20492;-72
2021/04/28 03:32:59;;;;;;;13.17;7.53;;;8.50;64.40;;;;;;5112673;27;20592;-73
2021/04/28 03:35:25;;;;;;;15.73;7.60;;;8.50;64.70;;;;;;5097572;28;20804;-73
2021/04/28 03:37:51;;;;;;;15.80;7.97;;;8.40;65.10;;;;;;5090661;28;20792;-73
2021/04/28 03:40:17;;;;;;;13.13;8.70;;;8.30;65.40;;;;;;5102822;28;20412;-73
2021/04/28 03:42:42;;;;;;;18.60;10.33;;;8.30;65.40;;;;;;5109988;28;20290;-72
2021/04/28 03:45:09;;;;;;;15.10;9.07;;;8.30;65.60;;;;;;5111146;28;20428;-74
2021/04/28 03:47:35;;;;;;;16.67;7.70;;;8.20;66.00;;;;;;5112339;28;20265;-73
2021/04/28 03:50:01;;;;;;;14.93;8.70;;;8.30;66.30;;;;;;5110017;28;21047;-73
2021/04/28 03:52:26;;;;;;;16.27;8.57;;;8.30;66.30;;;;;;5111082;28;20226;-74
2021/04/28 03:54:52;;;;;;;14.37;7.70;;;8.30;66.10;;;;;;5111695;28;20424;-74
2021/04/28 03:57:18;;;;;;;13.50;7.63;;;8.30;66.10;;;;;;5092329;28;20375;-75
2021/04/28 03:59:44;;;;;;;14.97;7.60;;;8.30;65.80;;;;;;5089021;28;20187;-75
2021/04/28 04:02:09;;;;;;;15.53;8.70;;;8.40;66.10;;;;;;5101552;27;20937;-73
2021/04/28 04:04:35;;;;;;;16.10;8.73;;;8.30;66.10;;;;;;5109424;28;20197;-73
2021/04/28 04:07:01;;;;;;;14.13;8.03;;;8.30;66.40;;;;;;5111233;28;20187;-73
2021/04/28 04:09:27;;;;;;;15.87;8.30;;;8.20;66.70;;;;;;5110705;28;20532;-74
2021/04/28 04:11:53;;;;;;;18.60;8.50;;;8.20;67.00;;;;;;5108402;28;20613;-73
2021/04/28 04:14:19;;;;;;;14.30;7.90;;;8.20;67.50;;;;;;5111489;28;20417;-73
2021/04/28 04:16:45;;;;;;;13.77;8.37;;;8.20;67.50;;;;;;5109886;28;20797;-74
2021/04/28 04:19:11;;;;;;;14.03;7.67;;;8.20;67.30;;;;;;5096870;28;20455;-74
2021/04/28 04:21:38;;;;;;;17.27;8.40;;;8.20;67.60;;;;;;5087846;28;20483;-75
2021/04/28 04:24:05;;;;;;;16.70;7.93;;;8.20;67.50;;;;;;5088910;28;20206;-75
2021/04/28 04:26:31;;;;;;;15.60;8.27;;;8.20;67.60;;;;;;5109068;28;20423;-73
2021/04/28 04:28:57;;;;;;;19.57;8.53;;;8.20;67.70;;;;;;5098629;28;20999;-73
2021/04/28 04:31:22;;;;;;;16.23;8.60;;;8.20;68.00;;;;;;5089124;28;20206;-73
2021/04/28 04:33:49;;;;;;;17.10;8.80;;;8.20;68.00;;;;;;5089431;28;20179;-73
2021/04/28 04:36:14;;;;;;;18.03;9.83;;;8.20;68.50;;;;;;5090086;28;20191;-74
2021/04/28 04:38:40;;;;;;;22.53;9.13;;;8.10;68.60;;;;;;5090245;28;20414;-73
2021/04/28 04:41:06;;;;;;;19.13;9.30;;;8.10;68.50;;;;;;5090257;28;20206;-74
2021/04/28 04:43:32;;;;;;;15.13;8.53;;;8.10;68.50;;;;;;5106357;28;20265;-74
2021/04/28 04:45:57;;;;;;;21.80;9.73;;;8.10;68.60;;;;;;5112897;28;20179;-73
2021/04/28 04:48:23;;;;;;;22.30;9.20;;;8.20;68.60;;;;;;5115310;28;20190;-73
2021/04/28 04:50:49;;;;;;;14.90;9.00;;;8.20;68.30;;;;;;5094695;28;20849;-74
2021/04/28 04:53:15;;;;;;;17.03;9.00;;;8.20;67.90;;;;;;5092153;28;20186;-73
2021/04/28 04:55:40;;;;;;;17.60;9.93;;;8.20;68.60;;;;;;5101356;28;20423;-74
2021/04/28 04:58:06;;;;;;;15.87;9.30;;;8.20;68.30;;;;;;5101141;28;20179;-74
2021/04/28 05:00:33;;;;;;;15.53;8.50;;;8.20;68.30;;;;;;5089472;28;20606;-73
2021/04/28 05:02:58;;;;;;;22.77;9.80;;;8.20;68.00;;;;;;5108889;28;20178;-74
2021/04/28 05:05:24;;;;;;;16.83;9.90;;;8.30;67.90;;;;;;5109045;28;20436;-73
2021/04/28 05:07:50;;;;;;;16.77;9.03;;;8.30;68.30;;;;;;5113952;28;20190;-74
2021/04/28 05:10:16;;;;;;;18.00;9.90;;;8.30;68.90;;;;;;5122063;28;20221;-75
2021/04/28 05:12:45;;;;;;;17.50;9.20;;;8.30;69.10;;;;;;5111199;28;20206;-73
2021/04/28 05:15:12;;;;;;;17.50;9.20;;;8.40;69.10;;;;;;5094119;28;20196;-74
2021/04/28 05:17:38;;;;;;;17.70;9.23;;;8.40;68.90;;;;;;5111737;28;20479;-74
2021/04/28 05:20:05;;;;;;;16.13;9.83;;;8.40;68.90;;;;;;5093403;28;20890;-74
2021/04/28 05:22:30;;;;;;;15.87;9.80;;;8.50;69.10;;;;;;5098531;28;20255;-74
2021/04/28 05:24:56;;;;;;;16.33;9.77;;;8.50;68.30;;;;;;5097384;28;20452;-75
2021/04/28 05:27:25;;;;;;;19.43;9.60;;;8.60;67.60;;;;;;5092827;28;20417;-73
2021/04/28 05:29:52;;;;;;;16.60;9.57;;;8.60;67.70;;;;;;5100781;28;20777;-73
2021/04/28 05:32:18;;;;;;;18.23;10.53;;;8.70;67.90;;;;;;5102936;28;20501;-74
2021/04/28 05:34:43;;;;;;;19.83;11.30;;;8.60;67.60;;;;;;5104185;28;20424;-72
2021/04/28 05:37:12;;;;;;;17.30;9.70;;;8.80;67.50;;;;;;5105165;28;20190;-74
2021/04/28 05:39:39;;;;;;;18.33;9.10;;;8.90;66.60;;;;;;5115458;28;20178;-74
2021/04/28 05:42:06;;;;;;;20.47;9.87;;;9.00;66.30;;;;;;5111410;28;20447;-75
2021/04/28 05:44:33;;;;;;;19.30;10.33;;;9.00;65.80;;;;;;5099448;28;20421;-75
2021/04/28 05:46:59;;;;;;;19.30;10.50;;;9.10;65.30;;;;;;5113561;28;20482;-74
2021/04/28 05:49:24;;;;;;;14.83;11.30;;;9.10;65.30;;;;;;5112647;28;20501;-74
2021/04/28 05:51:50;;;;;;;18.30;10.60;;;9.20;65.00;;;;;;5113271;28;20448;-74
2021/04/28 05:54:16;;;;;;;21.97;10.67;;;9.30;64.70;;;;;;5100196;28;20182;-75
2021/04/28 05:56:42;;;;;;;21.07;10.27;;;9.40;64.20;;;;;;5113630;28;20624;-75
2021/04/28 05:59:08;;;;;;;22.10;11.37;;;9.50;64.10;;;;;;5113267;28;20209;-74
2021/04/28 06:01:34;;;;;;;20.10;9.60;;;9.60;64.10;;;;;;5113434;28;20472;-73
2021/04/28 06:04:00;;;;;;;20.40;10.43;;;9.70;63.50;;;;;;5099374;28;20485;-74
2021/04/28 06:06:27;;;;;;;19.37;10.33;;;9.70;63.40;;;;;;5113690;28;20420;-69
2021/04/28 06:08:53;;;;;;;15.50;9.70;;;9.80;63.40;;;;;;5113941;28;20559;-70
2021/04/28 06:11:19;;;;;;;19.10;10.83;;;9.90;63.40;;;;;;5113898;28;20459;-69
2021/04/28 06:13:46;;;;;;;19.53;10.67;;;10.00;62.90;;;;;;5112547;28;20443;-69
2021/04/28 06:16:12;;;;;;;24.90;11.33;;;10.20;61.50;;;;;;5114045;28;20529;-70
2021/04/28 06:18:38;;;;;;;21.53;11.07;;;10.20;61.30;;;;;;5112873;28;20438;-69
2021/04/28 06:21:08;;;;;;;23.50;10.90;;;10.30;61.30;;;;;;5117120;28;20944;-69
2021/04/28 06:23:35;;;;;;;23.30;12.23;;;10.40;61.00;;;;;;5098451;28;20191;-70
2021/04/28 06:26:01;;;;;;;22.80;11.77;;;10.60;61.70;;;;;;5100666;28;20513;-69
2021/04/28 06:28:27;;;;;;;27.90;13.57;;;10.70;61.90;;;;;;5114127;28;20440;-69
2021/04/28 06:30:54;;;;;;;24.17;13.57;;;10.80;61.70;;;;;;5108680;28;20992;-68
2021/04/28 06:33:20;;;;;;;23.17;13.07;;;10.90;61.30;;;;;;5102124;28;20430;-68
2021/04/28 06:35:46;;;;;;;24.03;12.73;;;10.90;61.60;;;;;;5110426;28;20499;-67
2021/04/28 06:38:11;;;;;;;25.37;13.73;;;11.00;61.70;;;;;;5102729;28;20415;-69
2021/04/28 06:40:37;;;;;;;25.73;11.60;;;11.00;62.00;;;;;;5103655;28;20695;-68
2021/04/28 06:43:07;;;;;;;23.80;12.30;;;11.10;61.60;;;;;;5111639;28;20575;-69
2021/04/28 06:45:37;;;;;;;27.80;13.90;;;11.20;60.90;;;;;;5114433;28;20428;-73
2021/04/28 06:48:07;;;;;;;26.27;13.50;;;11.30;60.30;;;;;;5111629;28;20420;-69
2021/04/28 06:50:33;;;;;;;23.53;14.17;;;11.40;60.60;;;;;;5111282;28;20493;-73
2021/04/28 06:52:59;;;;;;;21.97;13.30;;;11.60;60.30;;;;;;5110514;28;20420;-72
2021/04/28 06:55:25;;;;;;;25.70;12.60;;;11.60;60.10;;;;;;5111547;28;20439;-72
2021/04/28 06:57:55;;;;;;;24.57;13.63;;;11.70;60.00;;;;;;5111791;28;20247;-73
2021/04/28 07:00:25;;;;;;;21.70;13.07;;;11.70;58.90;;;;;;5093647;28;20961;-74
2021/04/28 07:02:51;;;;;;;25.10;13.10;;;11.80;59.10;;;;;;5105781;28;20428;-72
2021/04/28 07:05:18;;;;;;;21.93;11.37;;;11.90;59.60;;;;;;5095285;28;20429;-72
2021/04/28 07:07:43;;;;;;;31.13;14.53;;;12.00;59.60;;;;;;5094416;28;20447;-73
2021/04/28 07:10:10;;;;;;;24.27;13.17;;;12.10;58.50;;;;;;5089355;28;20961;-73
2021/04/28 07:12:36;;;;;;;21.93;12.40;;;12.20;58.10;;;;;;5099535;28;20876;-72
2021/04/28 07:15:02;;;;;;;22.50;12.90;;;12.40;57.70;;;;;;5097066;28;20497;-73
2021/04/28 07:17:27;;;;;;;29.10;13.70;;;12.50;56.60;;;;;;5100810;28;20208;-74
2021/04/28 07:19:53;;;;;;;23.23;12.50;;;12.40;56.60;;;;;;5091408;28;20948;-73
2021/04/28 07:22:19;;;;;;;26.50;13.20;;;12.50;56.60;;;;;;5091736;28;20670;-72
2021/04/28 07:24:45;;;;;;;26.90;11.97;;;12.60;56.20;;;;;;5094318;28;20441;-73
2021/04/28 07:27:11;;;;;;;22.77;13.17;;;12.80;55.80;;;;;;5095723;28;20449;-73
2021/04/28 07:29:37;;;;;;;22.80;11.37;;;13.00;55.00;;;;;;5093797;28;20211;-72
2021/04/28 07:32:03;;;;;;;27.87;12.20;;;13.00;55.00;;;;;;5099640;28;20210;-73
2021/04/28 07:34:29;;;;;;;23.90;12.93;;;13.10;54.20;;;;;;5104357;28;20183;-73
2021/04/28 07:36:55;;;;;;;18.40;11.63;;;13.20;53.70;;;;;;5090162;28;20429;-71
2021/04/28 07:39:21;;;;;;;22.53;12.37;;;13.20;53.80;;;;;;5102385;28;20429;-72
2021/04/28 07:41:48;;;;;;;27.20;12.97;;;13.30;53.60;;;;;;5091618;28;21301;-72
2021/04/28 07:44:14;;;;;;;22.90;12.50;;;13.50;53.20;;;;;;5110773;28;20269;-73
2021/04/28 07:46:40;;;;;;;22.33;12.50;;;13.60;53.30;;;;;;5110842;28;20484;-73
2021/04/28 07:49:07;;;;;;;18.67;11.30;;;13.70;52.90;;;;;;5111164;28;20490;-73
2021/04/28 07:51:34;;;;;;;30.40;13.47;;;13.90;52.50;;;;;;5111536;28;20939;-73
2021/04/28 07:54:00;;;;;;;21.83;11.53;;;14.00;52.90;;;;;;5094642;28;20413;-73
2021/04/28 07:56:26;;;;;;;20.80;12.57;;;14.10;52.80;;;;;;5090872;28;20971;-74
2021/04/28 07:58:53;;;;;;;23.97;12.43;;;14.20;52.40;;;;;;5088835;28;20197;-73
2021/04/28 08:01:19;;;;;;;23.03;12.10;;;14.20;52.10;;;;;;5096233;27;20445;-73
2021/04/28 08:03:45;;;;;;;23.80;12.80;;;14.30;51.60;;;;;;5108788;27;20428;-72
2021/04/28 08:06:11;;;;;;;22.10;13.07;;;14.40;51.60;;;;;;5101938;28;20444;-73
2021/04/28 08:08:37;;;;;;;31.73;13.43;;;14.40;51.70;;;;;;5108658;28;20194;-73
2021/04/28 08:11:04;;;;;;;23.03;12.53;;;14.50;51.40;;;;;;5109291;28;20217;-73
2021/04/28 08:13:29;;;;;;;26.57;13.90;;;14.50;51.70;;;;;;5108064;28;20458;-72
2021/04/28 08:15:56;;;;;;;28.97;13.37;;;14.60;51.40;;;;;;5109739;28;20422;-72
2021/04/28 08:18:22;;;;;;;25.37;13.70;;;14.60;51.30;;;;;;5110137;28;20270;-72
2021/04/28 08:20:48;;;;;;;24.40;13.20;;;14.70;51.40;;;;;;5109693;28;20445;-72
2021/04/28 08:23:15;;;;;;;26.50;13.43;;;14.90;51.00;;;;;;5090665;28;20425;-73
2021/04/28 08:25:42;;;;;;;27.17;12.77;;;14.90;51.20;;;;;;5087824;28;20433;-73
2021/04/28 08:28:09;;;;;;;21.47;13.23;;;15.10;50.60;;;;;;5089410;28;20465;-74
2021/04/28 08:30:35;;;;;;;28.90;12.70;;;15.20;50.20;;;;;;5089111;28;20535;-72
2021/04/28 08:33:01;;;;;;;23.53;13.70;;;15.30;50.30;;;;;;5089288;28;20427;-73
2021/04/28 08:35:26;;;;;;;22.37;13.40;;;15.40;50.30;;;;;;5089702;28;20799;-73
2021/04/28 08:37:52;;;;;;;26.73;14.03;;;15.50;50.30;;;;;;5095540;28;20376;-73
2021/04/28 08:40:19;;;;;;;25.47;12.30;;;15.60;49.80;;;;;;5097302;28;20196;-73
2021/04/28 08:42:45;;;;;;;21.23;12.10;;;15.70;49.50;;;;;;5108483;28;20268;-72
2021/04/28 08:45:13;;;;;;;25.77;12.37;;;15.80;49.40;;;;;;5108294;28;20856;-73
2021/04/28 08:47:39;;;;;;;26.40;12.57;;;15.90;49.00;;;;;;5110018;28;20184;-72
2021/04/28 08:50:06;;;;;;;23.63;13.00;;;16.00;48.20;;;;;;5109823;28;20462;-73
2021/04/28 08:52:37;;;;;;;23.90;12.70;;;16.20;48.60;;;;;;5109838;28;20858;-73
2021/04/28 08:55:05;;;;;;;27.60;13.07;;;16.30;48.20;;;;;;5110247;28;20424;-73
2021/04/28 08:57:31;;;;;;;25.57;12.23;;;16.40;47.70;;;;;;5104207;28;20785;-72
2021/04/28 08:59:57;;;;;;;27.23;13.50;;;16.50;47.30;;;;;;5090237;28;20432;-73
2021/04/28 09:02:25;;;;;;;22.23;12.00;;;16.60;47.00;;;;;;5104095;28;20220;-73
2021/04/28 09:05:21;;;;;;;25.07;13.10;;;16.70;47.10;;;;;;5111602;28;20281;-73
2021/04/28 09:07:47;;;;;;;27.33;11.30;;;16.70;45.30;;;;;;5050409;28;20447;-72
2021/04/28 09:10:17;;;;;;;23.30;12.07;;;16.80;44.60;;;;;;5033529;28;20484;-73
2021/04/28 09:12:59;;;;;;;20.10;11.47;;;17.00;44.50;;;;;;5050846;28;20508;-72
2021/04/28 09:15:40;;;;;;;20.87;11.17;;;17.10;44.10;;;;;;5050043;28;20431;-73
2021/04/28 09:18:09;;;;;;;25.23;12.80;;;17.30;44.10;;;;;;5047689;28;20431;-74
2021/04/28 09:20:41;;;;;;;21.80;12.43;;;17.40;44.10;;;;;;5030988;28;20439;-73
2021/04/28 09:23:16;;;;;;;19.57;10.67;;;17.50;44.20;;;;;;5034522;28;20444;-72
2021/04/28 09:25:44;;;;;;;20.07;12.03;;;17.50;44.60;;;;;;5050384;28;20430;-72
2021/04/28 09:28:32;;;;;;;22.50;10.70;;;17.60;44.70;;;;;;5034574;28;20503;-73
2021/04/28 09:31:07;;;;;;;20.93;11.17;;;17.70;43.90;;;;;;5037156;28;20483;-72
2021/04/28 09:33:42;;;;;;;25.70;12.27;;;17.90;43.10;;;;;;5050796;28;20578;-71
2021/04/28 09:36:08;;;;;;;28.70;12.13;;;17.90;41.90;;;;;;5033232;28;20482;-72
2021/04/28 09:38:53;;;;;;;21.17;11.23;;;18.00;41.80;;;;;;5034035;28;20419;-71
2021/04/28 09:41:39;;;;;;;22.10;10.47;;;18.00;41.90;;;;;;5051184;28;20439;-72
2021/04/28 09:44:16;;;;;;;27.90;12.90;;;18.10;42.30;;;;;;5068214;28;20452;-71
2021/04/28 09:46:53;;;;;;;22.10;11.40;;;18.20;42.00;;;;;;5114986;28;20412;-72
2021/04/28 09:49:19;;;;;;;24.47;11.70;;;18.30;40.80;;;;;;5115544;28;20547;-72
2021/04/28 09:51:44;;;;;;;20.30;10.77;;;18.30;38.80;;;;;;5114754;28;20468;-73
2021/04/28 09:54:14;;;;;;;23.27;11.30;;;18.40;38.70;;;;;;5108073;28;20227;-72
2021/04/28 09:56:42;;;;;;;21.53;11.03;;;18.40;40.40;;;;;;5108119;28;20190;-72
2021/04/28 09:59:08;;;;;;;20.23;11.07;;;18.50;40.00;;;;;;5102144;28;20828;-72
2021/04/28 10:01:36;;;;;;;21.87;12.87;;;18.50;39.40;;;;;;5110062;28;20443;-76
2021/04/28 10:04:04;;;;;;;20.30;11.83;;;18.70;39.80;;;;;;5106651;27;20433;-72
2021/04/28 10:06:59;;;;;;;22.23;11.17;;;18.80;40.20;;;;;;5093703;28;20435;-72
2021/04/28 10:09:25;;;;;;;21.40;11.03;;;18.80;38.00;;;;;;5050699;28;20481;-76
2021/04/28 10:11:51;;;;;;;24.10;12.27;;;18.90;38.80;;;;;;5050085;28;20538;-73
2021/04/28 10:14:16;;;;;;;25.20;11.87;;;19.00;38.60;;;;;;5033227;28;20210;-71
2021/04/28 10:16:45;;;;;;;25.83;11.93;;;19.00;38.20;;;;;;5050802;28;20430;-71
2021/04/28 10:19:11;;;;;;;24.83;10.80;;;19.00;37.20;;;;;;5049972;28;20202;-72
2021/04/28 10:21:38;;;;;;;24.67;11.60;;;19.00;37.00;;;;;;5044312;28;21022;-73
2021/04/28 10:24:05;;;;;;;23.03;11.70;;;19.10;36.40;;;;;;5043744;28;20238;-74
2021/04/28 10:26:32;;;;;;;25.03;11.97;;;19.10;36.00;;;;;;5050436;28;20434;-72
2021/04/28 10:29:01;;;;;;;21.80;11.30;;;19.30;35.90;;;;;;5044591;28;20490;-74
2021/04/28 10:31:28;;;;;;;26.13;11.93;;;19.60;34.40;;;;;;5039450;28;20947;-73
2021/04/28 10:33:57;;;;;;;25.13;11.70;;;19.80;33.90;;;;;;5034321;28;20463;-73
2021/04/28 10:36:24;;;;;;;24.67;11.70;;;19.80;33.70;;;;;;5040316;28;20460;-73
2021/04/28 10:38:51;;;;;;;21.87;11.43;;;19.90;33.30;;;;;;5056815;28;20535;-74
2021/04/28 10:41:44;;;;;;;22.23;12.30;;;20.00;33.30;;;;;;5050998;28;20457;-73
2021/04/28 10:44:31;;;;;;;19.17;10.20;;;19.70;32.90;;;;;;5047609;28;20491;-72
2021/04/28 10:47:40;;;;;;;21.13;10.70;;;19.50;32.90;;;;;;5110920;28;20924;-71
2021/04/28 10:50:22;;;;;;;19.80;9.53;;;19.80;33.50;;;;;;5048180;28;20467;-71
2021/04/28 10:53:04;;;;;;;18.70;8.90;;;20.00;31.90;;;;;;5046669;28;20532;-71
2021/04/28 10:55:54;;;;;;;17.53;9.93;;;20.00;30.80;;;;;;5049621;28;20416;-74
2021/04/28 10:58:26;;;;;;;14.17;9.07;;;20.20;31.50;;;;;;5050561;28;20436;-74
2021/04/28 11:01:06;;;;;;;18.10;8.10;;;20.50;31.50;;;;;;5025512;28;20894;-74
2021/04/28 11:03:39;;;;;;;14.30;8.70;;;20.90;30.80;;;;;;5015839;28;20425;-74
2021/04/28 11:06:17;;;;;;;13.50;8.17;;;21.20;29.70;;;;;;5048116;28;20469;-74
2021/04/28 11:08:44;;;;;;;14.40;8.37;;;21.20;28.90;;;;;;5035236;28;20440;-72
2021/04/28 11:11:31;;;;;;;18.70;8.80;;;21.10;28.70;;;;;;5048748;28;20902;-73
2021/04/28 11:16:45;;;;;;;15.80;9.17;;;21.20;28.90;;;;;;5032752;28;20587;-73
2021/04/28 11:19:16;;;;;;;17.47;9.80;;;21.30;28.70;;;;;;5048669;28;21352;-71
2021/04/28 11:21:43;;;;;;;14.73;9.00;;;21.40;28.40;;;;;;5048115;28;20457;-73
2021/04/28 11:24:16;;;;;;;15.10;8.70;;;21.00;28.30;;;;;;5052151;28;20792;-72
2021/04/28 11:26:52;;;;;;;14.40;8.97;;;20.90;28.90;;;;;;5102349;28;20479;-74
2021/04/28 11:29:19;;;;;;;17.23;9.00;;;20.90;28.70;;;;;;5095999;28;21358;-72
2021/04/28 11:31:57;;;;;;;18.07;8.90;;;20.80;28.60;;;;;;5103466;28;20974;-72
2021/04/28 11:34:26;;;;;;;16.33;8.77;;;20.70;28.80;;;;;;5101601;28;20495;-73
2021/04/28 11:36:57;;;;;;;16.73;9.07;;;20.80;29.00;;;;;;5096790;28;20435;-73
2021/04/28 11:39:46;;;;;;;17.87;8.97;;;20.60;28.70;;;;;;5111235;28;20485;-73
2021/04/28 11:42:20;;;;;;;18.27;9.67;;;20.80;28.50;;;;;;5097111;28;20549;-71
2021/04/28 11:44:53;;;;;;;14.00;8.53;;;20.60;28.70;;;;;;5118870;28;20423;-73
2021/04/28 11:47:22;;;;;;;19.10;8.97;;;20.40;28.80;;;;;;5115041;27;20446;-71
2021/04/28 11:49:50;;;;;;;15.67;7.63;;;20.50;28.90;;;;;;5109954;28;20808;-71
2021/04/28 11:52:17;;;;;;;15.17;8.20;;;20.50;28.80;;;;;;5121153;28;20446;-72
2021/04/28 11:54:44;;;;;;;16.60;7.60;;;20.60;29.10;;;;;;5116188;28;20423;-73
2021/04/28 11:57:11;;;;;;;17.10;6.97;;;20.70;28.40;;;;;;5123243;28;20449;-73
2021/04/28 11:59:38;;;;;;;13.13;7.00;;;20.90;28.30;;;;;;5115790;28;20444;-73
2021/04/28 12:02:05;;;;;;;11.87;7.33;;;21.30;27.90;;;;;;5116404;28;20443;-72
2021/04/28 12:04:31;;;;;;;14.57;8.33;;;21.70;28.00;;;;;;5129062;28;20458;-75
2021/04/28 12:06:57;;;;;;;15.43;8.03;;;22.20;27.50;;;;;;5124418;28;20429;-73
2021/04/28 12:09:44;;;;;;;13.30;8.00;;;22.10;27.30;;;;;;5107626;28;20480;-71
2021/04/28 12:12:13;;;;;;;16.30;9.13;;;22.10;27.20;;;;;;5107516;28;20451;-72
2021/04/28 12:14:44;;;;;;;14.93;8.30;;;22.00;27.60;;;;;;5120433;28;20436;-71
2021/04/28 12:17:09;;;;;;;12.97;8.13;;;21.90;28.00;;;;;;5109209;28;20842;-74
2021/04/28 12:19:36;;;;;;;17.80;7.90;;;22.30;27.50;;;;;;5093628;28;20432;-73
2021/04/28 12:22:05;;;;;;;12.07;6.63;;;22.20;27.60;;;;;;5100629;28;20266;-72
2021/04/28 12:24:50;;;;;;;9.40;5.63;;;22.30;25.50;;;;;;5099052;28;20967;-73
2021/04/28 12:27:37;;;;;;;16.20;7.77;;;22.40;24.90;;;;;;5110508;28;20432;-72
2021/04/28 12:30:04;;;;;;;16.13;9.60;;;22.40;27.10;;;;;;5099712;28;20482;-73
2021/04/28 12:32:33;;;;;;;18.40;10.03;;;22.00;27.80;;;;;;5094119;28;20952;-71
2021/04/28 12:35:31;;;;;;;17.47;9.40;;;21.90;28.10;;;;;;5091992;28;20789;-71
2021/04/28 12:38:00;;;;;;;19.27;10.27;;;21.40;28.50;;;;;;5020921;28;20438;-71
2021/04/28 12:40:46;;;;;;;19.63;9.80;;;21.30;28.60;;;;;;5021079;28;20436;-71
2021/04/28 12:43:15;;;;;;;16.30;9.17;;;21.20;28.70;;;;;;5023750;28;20537;-72
2021/04/28 12:45:41;;;;;;;15.20;8.73;;;21.10;28.80;;;;;;5030261;28;20487;-71
2021/04/28 12:48:14;;;;;;;16.50;9.67;;;21.10;28.70;;;;;;4996407;28;20497;-72